createdAt,value
2022-08-25T00:00:45.902Z,100157.56
2022-08-25T00:05:49.089Z,100145.63
2022-08-25T00:10:59.835Z,100147.94
2022-08-25T00:16:06.836Z,100139.69
2022-08-25T00:21:09.905Z,100137.66
2022-08-25T00:26:15.832Z,100139.75
2022-08-25T00:31:23.443Z,100128.38
2022-08-25T00:36:41.489Z,100128.75
2022-08-25T00:41:44.367Z,100127.50
2022-08-25T00:46:55.430Z,100115.47
2022-08-25T00:52:18.854Z,100115.88
2022-08-25T00:57:34.550Z,100105.09
2022-08-25T01:02:38.827Z,100111.47
2022-08-25T01:07:43.525Z,100106.69
2022-08-25T01:12:50.116Z,100114.53
2022-08-25T01:17:57.720Z,100114.75
2022-08-25T01:23:03.117Z,100120.72
2022-08-25T01:28:07.271Z,100126.34
2022-08-25T01:33:11.885Z,100123.66
2022-08-25T01:38:15.520Z,100112.56
2022-08-25T01:43:39.326Z,100113.00
2022-08-25T01:48:42.173Z,100116.34
2022-08-25T01:53:45.215Z,100116.81
2022-08-25T01:58:50.062Z,100123.44
2022-08-25T02:03:56.052Z,100112.50
2022-08-25T02:09:07.244Z,100126.63
2022-08-25T02:14:12.030Z,100114.72
2022-08-25T02:19:17.278Z,100120.50
2022-08-25T02:24:20.950Z,100112.06
2022-08-25T02:29:24.011Z,100112.50
2022-08-25T02:34:27.599Z,100102.44
2022-08-25T02:39:30.518Z,100106.81
2022-08-25T02:44:33.685Z,100102.44
2022-08-25T02:49:36.522Z,100104.72
2022-08-25T02:54:39.387Z,100100.97
2022-08-25T02:59:42.319Z,100099.94
2022-08-25T03:04:45.412Z,100102.63
2022-08-25T03:09:48.783Z,100099.34
2022-08-25T03:14:51.755Z,100099.34
2022-08-25T03:19:54.627Z,100106.19
2022-08-25T03:25:22.149Z,100104.97
2022-08-25T03:30:27.994Z,100111.38
2022-08-25T03:35:30.927Z,100087.41
2022-08-25T03:40:34.288Z,100098.97
2022-08-25T03:45:41.811Z,100099.41
2022-08-25T03:50:52.152Z,100099.00
2022-08-25T03:55:55.016Z,100101.25
2022-08-25T04:01:00.558Z,100098.16
2022-08-25T04:06:06.654Z,100109.50
2022-08-25T04:11:22.549Z,100101.69
2022-08-25T04:16:31.326Z,100101.91
2022-08-25T04:21:34.917Z,100103.09
2022-08-25T04:26:42.705Z,100097.13
2022-08-25T04:31:48.708Z,100096.47
2022-08-25T04:36:52.602Z,100098.69
2022-08-25T04:41:55.677Z,100085.19
2022-08-25T04:46:59.979Z,100101.63
2022-08-25T04:52:03.348Z,100091.69
2022-08-25T04:57:07.224Z,100086.59
2022-08-25T05:02:10.403Z,100084.84
2022-08-25T05:07:13.442Z,100086.56
2022-08-25T05:12:16.678Z,100088.34
2022-08-25T05:17:19.618Z,100089.84
2022-08-25T05:22:25.427Z,100089.34
2022-08-25T05:27:28.565Z,100089.19
2022-08-25T05:32:32.036Z,100090.50
2022-08-25T05:37:35.304Z,100099.03
2022-08-25T05:42:38.796Z,100085.38
2022-08-25T05:47:41.598Z,100092.69
2022-08-25T05:52:45.680Z,100097.09
2022-08-25T05:57:49.034Z,100096.09
2022-08-25T06:02:52.054Z,100087.59
2022-08-25T06:07:55.643Z,100081.16
2022-08-25T06:12:58.624Z,100085.88
2022-08-25T06:18:03.468Z,100093.94
2022-08-25T06:23:06.578Z,100097.75
2022-08-25T06:28:09.551Z,100091.16
2022-08-25T06:33:12.463Z,100090.19
2022-08-25T06:38:15.303Z,100094.16
2022-08-25T06:43:20.253Z,100102.91
2022-08-25T06:48:24.023Z,100103.09
2022-08-25T06:53:26.937Z,100105.00
2022-08-25T06:58:30.218Z,100105.38
2022-08-25T07:03:33.101Z,100093.16
2022-08-25T07:08:40.346Z,100092.03
2022-08-25T07:13:44.163Z,100101.22
2022-08-25T07:18:48.675Z,100094.66
2022-08-25T07:23:52.329Z,100093.47
2022-08-25T07:28:56.335Z,100093.44
2022-08-25T07:34:18.165Z,100092.38
2022-08-25T07:39:22.295Z,100091.78
2022-08-25T07:44:28.076Z,100097.97
2022-08-25T07:49:35.997Z,100093.00
2022-08-25T07:54:42.832Z,100085.78
2022-08-25T07:59:50.319Z,100081.88
2022-08-25T08:04:54.284Z,100087.34
2022-08-25T08:10:27.926Z,100085.50
2022-08-25T08:15:21.472Z,100087.81
2022-08-25T08:20:25.831Z,100083.25
2022-08-25T08:25:28.781Z,100087.41
2022-08-25T08:30:32.195Z,100082.06
2022-08-25T08:35:35.166Z,100084.31
2022-08-25T08:41:23.225Z,100082.69
2022-08-25T08:46:50.631Z,100069.16
2022-08-25T08:52:00.627Z,100065.13
2022-08-25T08:57:18.870Z,100060.59
2022-08-25T09:03:00.462Z,100061.19
2022-08-25T09:08:10.498Z,100056.88
2022-08-25T09:13:35.836Z,100061.25
2022-08-25T09:18:50.908Z,100051.72
2022-08-25T09:24:28.588Z,100055.31
2022-08-25T09:30:11.619Z,100041.69
2022-08-25T09:35:26.569Z,100039.25
2022-08-25T09:40:35.717Z,100025.88
2022-08-25T09:45:45.143Z,100011.16
2022-08-25T09:50:54.492Z,100010.31
2022-08-25T09:56:06.020Z,100011.13
2022-08-25T10:01:15.920Z,100004.53
2022-08-25T10:06:19.071Z,99997.97
2022-08-25T10:11:52.709Z,99987.00
2022-08-25T10:17:29.605Z,99983.94
2022-08-25T10:22:33.046Z,99989.03
2022-08-25T10:27:51.025Z,99979.19
2022-08-25T10:33:03.681Z,99975.28
2022-08-25T10:38:47.778Z,99962.00
2022-08-25T10:44:47.827Z,99964.00
2022-08-25T10:50:01.533Z,99951.38
2022-08-25T10:55:45.345Z,99966.00
2022-08-25T11:01:02.155Z,99952.03
2022-08-25T11:06:14.654Z,99950.88
2022-08-25T11:11:47.144Z,99942.75
2022-08-25T11:17:00.602Z,99934.06
2022-08-25T11:22:38.676Z,99925.00
2022-08-25T11:27:55.418Z,99911.44
2022-08-25T11:32:58.537Z,99911.28
2022-08-25T11:38:35.624Z,99901.72
2022-08-25T11:44:53.199Z,99895.56
2022-08-25T11:50:23.641Z,99881.59
2022-08-25T11:55:38.881Z,99879.72
2022-08-25T12:00:46.080Z,99874.50
2022-08-25T12:23:34.779Z,99863.03
2022-08-25T12:29:07.563Z,99862.78
2022-08-25T12:34:48.550Z,99866.72
2022-08-25T12:39:51.598Z,99853.59
2022-08-25T12:45:20.765Z,99855.00
2022-08-25T12:50:32.140Z,99844.69
2022-08-25T12:55:37.524Z,99844.63
2022-08-25T13:00:52.490Z,99842.84
2022-08-25T13:06:20.435Z,99845.03
2022-08-25T13:11:43.352Z,99836.59
2022-08-25T13:17:00.371Z,99836.34
2022-08-25T13:22:18.601Z,99830.69
2022-08-25T13:27:28.328Z,99836.41
2022-08-25T13:32:39.684Z,99830.13
2022-08-25T13:37:43.831Z,99820.88
2022-08-25T13:42:56.148Z,99821.44
2022-08-25T13:48:00.425Z,99821.97
2022-08-25T13:53:26.467Z,99819.94
2022-08-25T13:58:39.282Z,99821.31
2022-08-25T14:03:48.815Z,99818.09
2022-08-25T14:08:58.461Z,99813.53
2022-08-25T14:14:03.968Z,99813.22
2022-08-25T14:19:20.177Z,99813.75
2022-08-25T14:24:24.312Z,99805.13
2022-08-25T14:29:28.732Z,99805.03
2022-08-25T14:34:37.749Z,99796.88
2022-08-25T14:39:44.081Z,99790.97
2022-08-25T14:44:47.607Z,99791.13
2022-08-25T14:49:50.565Z,99790.25
2022-08-25T14:54:54.389Z,99787.97
2022-08-25T14:59:58.621Z,99792.09
2022-08-25T15:05:06.477Z,99798.38
2022-08-25T15:10:13.561Z,99793.00
2022-08-25T15:15:17.532Z,99785.31
2022-08-25T15:20:23.559Z,99791.75
2022-08-25T15:25:27.969Z,99786.38
2022-08-25T15:30:31.384Z,99781.25
2022-08-25T15:35:35.442Z,99787.94
2022-08-25T15:40:39.807Z,99773.69
2022-08-25T15:45:43.035Z,99777.50
2022-08-25T15:50:47.378Z,99769.56
2022-08-25T15:55:50.495Z,99770.72
2022-08-25T16:00:56.948Z,99759.78
2022-08-25T16:06:04.642Z,99755.47
2022-08-25T16:11:18.867Z,99761.25
2022-08-25T16:16:24.948Z,99755.59
2022-08-25T16:21:37.123Z,99761.22
2022-08-25T16:26:48.584Z,99757.34
2022-08-25T16:31:53.302Z,99758.94
2022-08-25T16:36:58.491Z,99758.25
2022-08-25T16:42:01.885Z,99759.19
2022-08-25T16:47:05.298Z,99760.09
2022-08-25T16:52:30.437Z,99760.34
2022-08-25T16:57:33.764Z,99764.22
2022-08-25T17:02:37.442Z,99769.16
2022-08-25T17:07:41.568Z,99768.22
2022-08-25T17:12:44.351Z,99767.38
2022-08-25T17:17:47.259Z,99778.97
2022-08-25T17:22:50.971Z,99773.91
2022-08-25T17:27:53.707Z,99768.88
2022-08-25T17:32:56.657Z,99778.25
2022-08-25T17:37:59.840Z,99791.69
2022-08-25T17:43:02.992Z,99795.63
2022-08-25T17:48:07.419Z,99801.13
2022-08-25T17:53:13.364Z,99795.50
2022-08-25T17:58:17.444Z,99802.91
2022-08-25T18:03:20.458Z,99806.25
2022-08-25T18:08:32.034Z,99806.56
2022-08-25T18:13:39.110Z,99807.16
2022-08-25T18:18:42.325Z,99817.50
2022-08-25T18:23:45.802Z,99819.97
2022-08-25T18:28:49.606Z,99812.06
2022-08-25T18:33:53.010Z,99814.78
2022-08-25T18:39:14.593Z,99807.19
2022-08-25T18:44:19.907Z,99806.09
2022-08-25T18:49:22.848Z,99813.44
2022-08-25T18:54:29.562Z,99803.94
2022-08-25T18:59:33.231Z,99802.28
2022-08-25T19:04:37.102Z,99813.44
2022-08-25T19:09:40.495Z,99801.19
2022-08-25T19:14:43.335Z,99809.34
2022-08-25T19:19:46.184Z,99810.97
2022-08-25T19:24:49.332Z,99814.75
2022-08-25T19:29:53.033Z,99807.94
2022-08-25T19:34:57.008Z,99810.63
2022-08-25T19:39:59.910Z,99805.44
2022-08-25T19:45:09.203Z,99806.78
2022-08-25T19:50:14.985Z,99810.28
2022-08-25T19:55:21.071Z,99810.00
2022-08-25T20:00:30.024Z,99816.50
2022-08-25T20:05:33.856Z,99817.56
2022-08-25T20:10:41.825Z,99812.91
2022-08-25T20:15:45.131Z,99823.16
2022-08-25T20:20:48.109Z,99820.38
2022-08-25T20:25:51.667Z,99825.75
2022-08-25T20:30:54.861Z,99818.63
2022-08-25T20:35:58.330Z,99826.94
2022-08-25T20:41:01.579Z,99826.38
2022-08-25T20:46:09.284Z,99826.28
2022-08-25T20:51:13.241Z,99830.25
2022-08-25T20:56:20.332Z,99824.25
2022-08-25T21:01:37.855Z,99830.94
2022-08-25T21:06:44.746Z,99825.69
2022-08-25T21:11:48.540Z,99823.47
2022-08-25T21:16:54.310Z,99832.06
2022-08-25T21:21:59.546Z,99813.28
2022-08-25T21:27:04.621Z,99806.78
2022-08-25T21:32:07.455Z,99805.44
2022-08-25T21:37:13.444Z,99799.81
2022-08-25T21:42:16.411Z,99802.56
2022-08-25T21:47:21.173Z,99803.13
2022-08-25T21:52:25.273Z,99807.72
2022-08-25T21:57:28.586Z,99800.06
2022-08-25T22:02:31.421Z,99806.44
2022-08-25T22:07:41.619Z,99811.25
2022-08-25T22:12:48.253Z,99808.44
2022-08-25T22:17:50.997Z,99813.25
2022-08-25T22:22:53.801Z,99812.88
2022-08-25T22:27:57.217Z,99815.78
2022-08-25T22:33:00.076Z,99814.06
2022-08-25T22:38:04.787Z,99815.88
2022-08-25T22:43:09.310Z,99801.97
2022-08-25T22:48:13.850Z,99808.66
2022-08-25T22:53:16.686Z,99806.13
2022-08-25T22:58:19.388Z,99802.84
2022-08-25T23:03:22.351Z,99796.06
2022-08-25T23:08:38.880Z,99794.09
2022-08-25T23:13:44.313Z,99792.66
2022-08-25T23:18:47.332Z,99797.72
2022-08-25T23:23:50.203Z,99794.41
2022-08-25T23:28:53.588Z,99790.25
2022-08-25T23:33:58.640Z,99786.91
2022-08-25T23:39:02.187Z,99782.72
2022-08-25T23:44:05.813Z,99779.94
2022-08-25T23:49:09.396Z,99781.50
2022-08-25T23:54:13.461Z,99784.38
2022-08-25T23:59:16.591Z,99783.72
